createdAt,value
2022-09-17T00:01:51.491Z,5.57
2022-09-17T00:04:20.593Z,4.67
2022-09-17T00:06:49.698Z,4.13
2022-09-17T00:09:18.781Z,4.70
2022-09-17T00:11:48.036Z,4.67
2022-09-17T00:14:20.188Z,4.93
2022-09-17T00:16:50.709Z,6.67
2022-09-17T00:19:23.159Z,3.70
2022-09-17T00:21:52.559Z,5.33
2022-09-17T00:24:22.256Z,3.83
2022-09-17T00:26:52.319Z,4.27
2022-09-17T00:29:23.438Z,3.87
2022-09-17T00:31:52.543Z,4.73
2022-09-17T00:34:21.519Z,5.93
2022-09-17T00:36:52.366Z,4.93
2022-09-17T00:39:21.518Z,4.73
2022-09-17T00:41:50.784Z,6.27
2022-09-17T00:44:44.621Z,6.90
2022-09-17T00:47:19.505Z,8.07
2022-09-17T00:49:50.846Z,4.80
2022-09-17T00:52:23.834Z,4.80
2022-09-17T00:54:59.594Z,3.93
2022-09-17T00:57:29.960Z,6.90
2022-09-17T01:00:00.874Z,6.97
2022-09-17T01:02:30.491Z,8.07
2022-09-17T01:04:59.496Z,3.63
2022-09-17T01:07:54.154Z,5.30
2022-09-17T01:10:37.835Z,5.30
2022-09-17T01:13:15.499Z,5.60
2022-09-17T01:15:52.958Z,5.30
2022-09-17T01:18:39.512Z,3.83
2022-09-17T01:21:34.541Z,5.23
2022-09-17T01:24:25.544Z,3.97
2022-09-17T01:27:33.312Z,4.43
2022-09-17T01:30:18.231Z,6.70
2022-09-17T01:32:53.737Z,6.13
2022-09-17T01:35:34.229Z,4.63
2022-09-17T01:38:12.332Z,5.03
2022-09-17T01:40:49.978Z,4.97
2022-09-17T01:43:26.492Z,5.37
2022-09-17T01:45:59.592Z,4.00
2022-09-17T01:48:34.471Z,4.80
2022-09-17T01:51:08.883Z,3.90
2022-09-17T01:53:45.761Z,7.87
2022-09-17T01:56:18.942Z,6.07
2022-09-17T01:58:54.553Z,7.67
2022-09-17T02:01:26.594Z,5.40
2022-09-17T02:04:05.270Z,7.90
2022-09-17T02:06:37.759Z,3.83
2022-09-17T02:09:13.675Z,7.43
2022-09-17T02:11:48.523Z,4.57
2022-09-17T02:14:22.778Z,7.93
2022-09-17T02:16:55.225Z,4.03
2022-09-17T02:19:28.868Z,3.87
2022-09-17T02:22:04.847Z,2.77
2022-09-17T02:24:44.497Z,5.27
2022-09-17T02:27:21.198Z,5.40
2022-09-17T02:29:50.603Z,4.63
2022-09-17T02:32:19.589Z,4.90
2022-09-17T02:34:50.568Z,4.00
2022-09-17T02:37:19.708Z,6.50
2022-09-17T02:39:49.134Z,7.07
2022-09-17T02:42:24.326Z,5.83
2022-09-17T02:45:03.881Z,4.17
2022-09-17T02:47:52.155Z,3.33
2022-09-17T02:50:32.236Z,3.17
2022-09-17T02:53:15.976Z,4.27
2022-09-17T02:55:51.595Z,4.83
2022-09-17T02:58:29.402Z,3.83
2022-09-17T03:01:02.228Z,6.50
2022-09-17T03:03:35.848Z,4.13
2022-09-17T03:06:07.378Z,4.30
2022-09-17T03:08:38.488Z,5.63
2022-09-17T03:11:09.843Z,5.07
2022-09-17T03:13:40.164Z,5.57
2022-09-17T03:16:09.671Z,4.37
2022-09-17T03:18:38.897Z,6.77
2022-09-17T03:21:09.336Z,5.93
2022-09-17T03:23:38.255Z,7.27
2022-09-17T03:26:07.506Z,5.27
2022-09-17T03:28:36.567Z,6.17
2022-09-17T03:31:11.902Z,4.47
2022-09-17T03:33:41.055Z,6.10
2022-09-17T03:36:11.610Z,5.07
2022-09-17T03:38:45.136Z,4.50
2022-09-17T03:41:14.333Z,7.30
2022-09-17T03:43:43.321Z,6.90
2022-09-17T03:46:12.539Z,5.30
2022-09-17T03:48:41.486Z,3.73
2022-09-17T03:51:12.195Z,3.67
2022-09-17T03:53:41.144Z,7.13
2022-09-17T03:56:10.293Z,6.27
2022-09-17T03:58:39.255Z,4.37
2022-09-17T04:01:08.465Z,4.63
2022-09-17T04:03:38.573Z,5.57
2022-09-17T04:06:08.084Z,4.83
2022-09-17T04:08:39.143Z,4.87
2022-09-17T04:11:09.255Z,7.73
2022-09-17T04:13:39.375Z,5.30
2022-09-17T04:16:09.747Z,7.40
2022-09-17T04:18:39.363Z,6.03
2022-09-17T04:21:08.465Z,7.87
2022-09-17T04:23:39.375Z,5.73
2022-09-17T04:26:08.515Z,4.33
2022-09-17T04:28:37.740Z,6.77
2022-09-17T04:31:06.765Z,8.83
2022-09-17T04:33:36.035Z,5.03
2022-09-17T04:36:05.396Z,6.00
2022-09-17T04:38:35.222Z,4.43
2022-09-17T04:41:08.042Z,6.20
2022-09-17T04:43:37.478Z,5.47
2022-09-17T04:46:07.430Z,4.70
2022-09-17T04:48:37.374Z,5.70
2022-09-17T04:51:06.736Z,5.97
2022-09-17T04:53:35.818Z,7.80
2022-09-17T04:56:06.861Z,9.37
2022-09-17T04:58:35.941Z,8.00
2022-09-17T05:01:05.015Z,7.03
2022-09-17T05:03:34.541Z,6.67
2022-09-17T05:06:03.627Z,7.53
2022-09-17T05:08:32.859Z,5.73
2022-09-17T05:11:01.939Z,5.47
2022-09-17T05:13:32.479Z,5.53
2022-09-17T05:16:01.813Z,5.77
2022-09-17T05:18:32.087Z,6.17
2022-09-17T05:21:01.343Z,5.00
2022-09-17T05:23:31.345Z,6.83
2022-09-17T05:26:01.069Z,5.03
2022-09-17T05:28:30.949Z,6.47
2022-09-17T05:31:03.297Z,6.87
2022-09-17T05:33:32.807Z,6.80
2022-09-17T05:36:01.917Z,8.83
2022-09-17T05:38:30.928Z,9.63
2022-09-17T05:41:00.148Z,6.00
2022-09-17T05:43:29.169Z,6.07
2022-09-17T05:46:02.308Z,7.10
2022-09-17T05:48:32.988Z,7.03
2022-09-17T05:51:02.167Z,7.40
2022-09-17T05:53:32.177Z,6.87
2022-09-17T05:56:01.771Z,4.80
2022-09-17T05:58:32.358Z,5.90
2022-09-17T06:01:04.180Z,5.17
2022-09-17T06:03:34.659Z,4.50
2022-09-17T06:06:04.036Z,6.17
2022-09-17T06:08:33.079Z,4.23
2022-09-17T06:11:06.516Z,7.70
2022-09-17T06:13:36.670Z,6.23
2022-09-17T06:16:07.508Z,5.33
2022-09-17T06:18:41.240Z,6.77
2022-09-17T06:21:10.802Z,6.03
2022-09-17T06:23:39.707Z,6.73
2022-09-17T06:26:09.265Z,5.30
2022-09-17T06:28:41.667Z,6.90
2022-09-17T06:31:12.407Z,5.20
2022-09-17T06:33:43.353Z,4.37
2022-09-17T06:36:14.602Z,6.53
2022-09-17T06:38:44.598Z,3.30
2022-09-17T06:41:15.070Z,6.67
2022-09-17T06:43:44.231Z,7.73
2022-09-17T06:46:13.530Z,4.83
2022-09-17T06:48:44.157Z,4.87
2022-09-17T06:51:13.689Z,4.57
2022-09-17T06:53:42.990Z,5.40
2022-09-17T06:56:13.908Z,4.87
2022-09-17T06:58:44.099Z,4.30
2022-09-17T07:01:14.044Z,5.10
2022-09-17T07:03:46.376Z,3.70
2022-09-17T07:06:16.243Z,3.03
2022-09-17T07:08:45.357Z,6.17
2022-09-17T07:11:14.496Z,6.23
2022-09-17T07:13:43.761Z,4.70
2022-09-17T07:16:13.167Z,3.83
2022-09-17T07:18:43.708Z,4.00
2022-09-17T07:21:12.782Z,3.93
2022-09-17T07:23:41.885Z,3.07
2022-09-17T07:26:15.721Z,5.07
2022-09-17T07:28:45.828Z,3.97
2022-09-17T07:31:16.841Z,4.40
2022-09-17T07:33:47.873Z,2.60
2022-09-17T07:36:18.474Z,2.90
2022-09-17T07:38:47.611Z,4.40
2022-09-17T07:41:18.110Z,4.50
2022-09-17T07:43:47.142Z,4.67
2022-09-17T07:46:18.336Z,3.40
2022-09-17T07:48:49.595Z,5.07
2022-09-17T07:51:19.847Z,3.13
2022-09-17T07:53:51.167Z,3.07
2022-09-17T07:56:20.237Z,3.80
2022-09-17T07:58:49.643Z,5.00
2022-09-17T08:01:21.566Z,4.93
2022-09-17T08:03:55.407Z,2.90
2022-09-17T08:06:28.543Z,4.93
2022-09-17T08:08:58.887Z,3.50
2022-09-17T08:11:54.917Z,2.83
2022-09-17T08:14:20.387Z,1.93
2022-09-17T08:16:49.368Z,3.03
2022-09-17T08:19:20.788Z,6.13
2022-09-17T08:21:49.829Z,2.80
2022-09-17T08:24:18.898Z,3.77
2022-09-17T08:26:47.908Z,4.43
2022-09-17T08:29:17.099Z,3.37
2022-09-17T08:31:46.265Z,5.00
2022-09-17T08:34:15.481Z,4.67
2022-09-17T08:36:46.059Z,4.60
2022-09-17T08:39:15.882Z,3.93
2022-09-17T08:41:52.089Z,4.10
2022-09-17T08:44:28.038Z,4.67
2022-09-17T08:47:06.680Z,8.40
2022-09-17T08:49:38.360Z,4.57
2022-09-17T08:52:45.023Z,3.53
2022-09-17T08:55:25.785Z,3.63
2022-09-17T08:58:06.572Z,4.60
2022-09-17T09:00:43.179Z,1.63
2022-09-17T09:03:26.196Z,4.00
2022-09-17T09:05:56.807Z,3.10
2022-09-17T09:08:33.679Z,5.40
2022-09-17T09:11:05.071Z,3.37
2022-09-17T09:13:38.422Z,3.40
2022-09-17T09:16:13.772Z,4.50
2022-09-17T09:18:43.530Z,3.07
2022-09-17T09:21:25.689Z,6.07
2022-09-17T09:23:59.548Z,2.27
2022-09-17T09:26:40.939Z,2.80
2022-09-17T09:29:20.357Z,1.93
2022-09-17T09:32:15.827Z,2.67
2022-09-17T09:34:54.430Z,4.30
2022-09-17T09:37:33.790Z,2.63
2022-09-17T09:40:25.260Z,3.10
2022-09-17T09:43:06.074Z,3.33
2022-09-17T09:45:49.283Z,1.30
2022-09-17T09:48:25.505Z,1.93
2022-09-17T09:51:10.411Z,2.00
2022-09-17T09:53:48.424Z,3.13
2022-09-17T09:56:44.889Z,2.50
2022-09-17T09:59:14.210Z,4.57
2022-09-17T10:01:45.574Z,4.63
2022-09-17T10:04:20.723Z,2.27
2022-09-17T10:06:51.658Z,3.57
2022-09-17T10:09:22.745Z,2.40
2022-09-17T10:12:16.556Z,2.87
2022-09-17T10:14:47.250Z,3.40
2022-09-17T10:17:21.858Z,7.40
2022-09-17T10:20:22.890Z,3.70
2022-09-17T10:22:52.530Z,2.47
2022-09-17T10:25:33.091Z,1.87
2022-09-17T10:28:06.218Z,6.27
2022-09-17T10:30:36.669Z,1.67
2022-09-17T10:33:19.957Z,2.67
2022-09-17T10:35:58.809Z,4.13
2022-09-17T10:38:36.739Z,1.80
2022-09-17T10:41:26.550Z,3.23
2022-09-17T10:43:57.287Z,2.37
2022-09-17T10:46:31.180Z,3.07
2022-09-17T10:49:11.881Z,2.23
2022-09-17T10:51:41.468Z,1.87
2022-09-17T10:54:43.227Z,3.47
2022-09-17T10:57:17.139Z,3.70
2022-09-17T11:00:05.399Z,2.00
2022-09-17T11:03:13.678Z,2.60
2022-09-17T11:05:56.561Z,1.20
2022-09-17T11:08:32.499Z,2.73
2022-09-17T11:11:12.251Z,3.00
2022-09-17T11:13:49.101Z,2.73
2022-09-17T11:16:35.758Z,1.70
2022-09-17T11:19:17.416Z,4.27
2022-09-17T11:21:50.427Z,3.77
2022-09-17T11:25:17.150Z,2.30
2022-09-17T11:28:00.733Z,1.57
2022-09-17T11:30:34.258Z,2.77
2022-09-17T11:33:24.010Z,1.70
2022-09-17T11:36:00.461Z,4.80
2022-09-17T11:38:36.827Z,2.57
2022-09-17T11:41:11.039Z,1.90
2022-09-17T11:43:42.292Z,2.40
2022-09-17T11:46:16.895Z,1.37
2022-09-17T11:48:51.110Z,2.27
2022-09-17T11:51:29.689Z,3.53
2022-09-17T11:54:05.550Z,3.70
2022-09-17T11:56:40.537Z,2.23
2022-09-17T11:59:20.303Z,3.07
2022-09-17T12:01:54.214Z,2.23
2022-09-17T12:04:38.456Z,2.30
2022-09-17T12:07:19.363Z,2.77
2022-09-17T12:09:52.515Z,2.57
2022-09-17T12:12:48.559Z,2.77
2022-09-17T12:15:20.634Z,4.10
2022-09-17T12:18:14.283Z,3.37
2022-09-17T12:20:50.017Z,3.80
2022-09-17T12:23:26.105Z,4.27
2022-09-17T12:26:01.086Z,1.90
2022-09-17T12:28:35.473Z,3.23
2022-09-17T12:31:13.605Z,3.33
2022-09-17T12:33:49.666Z,3.60
2022-09-17T12:36:37.893Z,4.30
2022-09-17T12:39:35.806Z,4.47
2022-09-17T12:42:16.115Z,2.50
2022-09-17T12:45:09.898Z,2.57
2022-09-17T12:48:22.833Z,3.40
2022-09-17T12:51:05.656Z,3.83
2022-09-17T12:53:38.830Z,4.43
2022-09-17T12:56:25.730Z,2.50
2022-09-17T12:59:10.198Z,2.10
2022-09-17T13:01:47.674Z,4.10
2022-09-17T13:05:01.340Z,2.70
2022-09-17T13:08:15.749Z,4.33
2022-09-17T13:11:28.758Z,3.70
2022-09-17T13:14:04.933Z,5.47
2022-09-17T13:16:41.625Z,3.83
2022-09-17T13:19:25.747Z,3.40
2022-09-17T13:22:01.764Z,2.57
2022-09-17T13:24:33.023Z,2.60
2022-09-17T13:27:06.453Z,2.90
2022-09-17T13:30:03.466Z,4.37
2022-09-17T13:32:54.391Z,2.30
2022-09-17T13:35:51.827Z,3.50
2022-09-17T13:38:24.153Z,3.73
2022-09-17T13:40:54.666Z,4.17
2022-09-17T13:43:28.514Z,3.30
2022-09-17T13:46:24.465Z,4.93
2022-09-17T13:48:59.168Z,2.10
2022-09-17T13:51:49.674Z,2.10
2022-09-17T13:54:22.162Z,2.10
2022-09-17T13:57:20.349Z,1.90
2022-09-17T13:59:59.457Z,1.67
2022-09-17T14:02:38.515Z,1.83
2022-09-17T14:05:34.295Z,1.97
2022-09-17T14:08:31.578Z,1.87
2022-09-17T14:11:03.811Z,2.30
2022-09-17T14:13:53.962Z,1.60
2022-09-17T14:16:39.143Z,2.67
2022-09-17T14:19:30.196Z,2.23
2022-09-17T14:22:02.996Z,1.60
2022-09-17T14:24:40.716Z,2.87
2022-09-17T14:27:38.662Z,2.33
2022-09-17T14:30:20.898Z,3.30
2022-09-17T14:33:05.054Z,1.73
2022-09-17T14:35:38.677Z,4.87
2022-09-17T14:38:15.516Z,1.70
2022-09-17T14:40:47.226Z,3.57
2022-09-17T14:43:28.931Z,3.27
2022-09-17T14:45:59.076Z,4.40
2022-09-17T14:48:34.407Z,1.47
2022-09-17T14:51:30.844Z,2.33
2022-09-17T14:54:19.573Z,2.03
2022-09-17T14:57:01.496Z,3.13
2022-09-17T14:59:51.411Z,2.60
2022-09-17T15:02:45.241Z,2.37
2022-09-17T15:05:27.144Z,3.23
2022-09-17T15:08:10.045Z,2.70
2022-09-17T15:10:47.854Z,2.10
2022-09-17T15:13:20.120Z,2.13
2022-09-17T15:15:55.910Z,3.53
2022-09-17T15:18:34.526Z,1.60
2022-09-17T15:21:08.529Z,2.57
2022-09-17T15:23:39.327Z,2.50
2022-09-17T15:26:08.833Z,7.73
2022-09-17T15:28:40.929Z,3.30
2022-09-17T15:31:19.719Z,2.70
2022-09-17T15:33:49.331Z,2.60
2022-09-17T15:36:25.191Z,3.63
2022-09-17T15:38:54.253Z,2.77
2022-09-17T15:41:33.775Z,3.80
2022-09-17T15:44:29.605Z,3.23
2022-09-17T15:47:32.640Z,3.17
2022-09-17T15:50:23.670Z,2.43
2022-09-17T15:53:13.039Z,2.27
2022-09-17T15:55:43.857Z,2.80
2022-09-17T15:58:26.020Z,3.83
2022-09-17T16:01:41.076Z,2.77
2022-09-17T16:04:35.950Z,11.67
2022-09-17T16:07:31.079Z,3.90
2022-09-17T16:10:01.960Z,5.27
2022-09-17T16:12:31.401Z,4.00
2022-09-17T16:15:02.461Z,3.93
2022-09-17T16:17:43.900Z,3.93
2022-09-17T16:20:18.211Z,2.73
2022-09-17T16:22:48.675Z,3.73
2022-09-17T16:25:20.413Z,4.37
2022-09-17T16:27:53.099Z,3.27
2022-09-17T16:30:23.961Z,3.57
2022-09-17T16:32:53.349Z,3.23
2022-09-17T16:35:24.421Z,5.13
2022-09-17T16:37:56.549Z,4.43
2022-09-17T16:40:29.623Z,6.60
2022-09-17T16:43:02.310Z,4.53
2022-09-17T16:45:32.935Z,4.67
2022-09-17T16:48:02.069Z,4.33
2022-09-17T16:50:31.197Z,4.73
2022-09-17T16:53:04.749Z,5.87
2022-09-17T16:55:35.836Z,4.50
2022-09-17T16:58:05.080Z,5.90
2022-09-17T17:00:34.182Z,8.70
2022-09-17T17:03:03.538Z,5.83
2022-09-17T17:05:33.784Z,6.87
2022-09-17T17:08:06.705Z,7.30
2022-09-17T17:10:39.550Z,7.27
2022-09-17T17:13:09.240Z,6.40
2022-09-17T17:15:39.513Z,5.20
2022-09-17T17:18:08.358Z,4.73
2022-09-17T17:20:37.789Z,10.87
2022-09-17T17:23:07.909Z,4.87
2022-09-17T17:25:38.541Z,3.23
2022-09-17T17:28:07.552Z,6.93
2022-09-17T17:30:36.866Z,4.63
2022-09-17T17:33:06.041Z,4.43
2022-09-17T17:35:35.052Z,4.93
2022-09-17T17:38:03.999Z,9.13
2022-09-17T17:40:33.310Z,4.63
2022-09-17T17:43:03.938Z,4.43
2022-09-17T17:45:33.617Z,4.90
2022-09-17T17:48:02.947Z,4.53
2022-09-17T17:50:31.994Z,7.53
2022-09-17T17:53:01.228Z,5.93
2022-09-17T17:55:30.623Z,5.07
2022-09-17T17:58:01.682Z,7.17
2022-09-17T18:00:32.390Z,6.00
2022-09-17T18:03:01.563Z,5.43
2022-09-17T18:05:30.648Z,5.17
2022-09-17T18:07:59.849Z,4.60
2022-09-17T18:10:30.041Z,6.80
2022-09-17T18:12:59.758Z,5.23
2022-09-17T18:15:31.860Z,4.30
2022-09-17T18:18:04.352Z,6.00
2022-09-17T18:20:35.994Z,4.87
2022-09-17T18:23:05.130Z,4.80
2022-09-17T18:25:34.069Z,5.30
2022-09-17T18:28:05.125Z,4.00
2022-09-17T18:30:39.838Z,3.90
2022-09-17T18:33:09.703Z,3.90
2022-09-17T18:35:38.842Z,5.63
2022-09-17T18:38:08.287Z,5.07
2022-09-17T18:40:37.517Z,5.47
2022-09-17T18:43:06.946Z,4.23
2022-09-17T18:45:40.719Z,6.17
2022-09-17T18:48:10.861Z,5.47
2022-09-17T18:50:40.170Z,5.40
2022-09-17T18:53:09.326Z,6.30
2022-09-17T18:55:38.209Z,6.47
2022-09-17T18:58:07.146Z,5.20
2022-09-17T19:00:42.262Z,5.50
2022-09-17T19:03:12.320Z,5.00
2022-09-17T19:05:41.294Z,4.90
2022-09-17T19:08:11.751Z,5.00
2022-09-17T19:10:40.777Z,6.60
2022-09-17T19:13:09.967Z,5.07
2022-09-17T19:15:42.366Z,5.73
2022-09-17T19:18:12.968Z,4.93
2022-09-17T19:20:42.129Z,7.03
2022-09-17T19:23:11.565Z,5.93
2022-09-17T19:25:42.005Z,7.73
2022-09-17T19:28:11.170Z,4.97
2022-09-17T19:30:41.739Z,5.20
2022-09-17T19:33:10.614Z,6.00
2022-09-17T19:35:42.481Z,5.23
2022-09-17T19:38:13.607Z,6.90
2022-09-17T19:40:45.167Z,7.27
2022-09-17T19:43:15.371Z,10.50
2022-09-17T19:45:46.279Z,8.10
2022-09-17T19:48:15.181Z,7.73
2022-09-17T19:50:52.505Z,6.60
2022-09-17T19:53:23.264Z,12.50
2022-09-17T19:55:52.304Z,25.87
2022-09-17T19:58:21.959Z,9.43
2022-09-17T20:00:56.572Z,10.00
2022-09-17T20:03:27.948Z,10.00
2022-09-17T20:06:04.255Z,11.73
2022-09-17T20:08:35.846Z,8.80
2022-09-17T20:11:08.048Z,6.43
2022-09-17T20:13:37.311Z,6.27
2022-09-17T20:16:12.496Z,5.70
2022-09-17T20:18:42.407Z,7.07
2022-09-17T20:21:12.482Z,7.13
2022-09-17T20:23:41.566Z,7.03
2022-09-17T20:26:13.327Z,6.67
2022-09-17T20:28:43.306Z,6.30
2022-09-17T20:31:16.795Z,6.90
2022-09-17T20:33:45.911Z,5.90
2022-09-17T20:36:16.819Z,6.70
2022-09-17T20:41:37.159Z,6.87
2022-09-17T20:44:07.766Z,7.43
2022-09-17T20:46:39.147Z,8.37
2022-09-17T20:49:09.981Z,8.07
2022-09-17T20:51:39.028Z,9.83
2022-09-17T20:54:10.428Z,8.63
2022-09-17T20:56:39.555Z,8.00
2022-09-17T20:59:16.762Z,6.73
2022-09-17T21:01:52.382Z,8.17
2022-09-17T21:04:25.271Z,9.40
2022-09-17T21:06:56.925Z,10.40
2022-09-17T21:09:26.238Z,7.97
2022-09-17T21:11:55.417Z,8.80
2022-09-17T21:14:25.675Z,8.87
2022-09-17T21:16:56.695Z,8.23
2022-09-17T21:19:32.130Z,10.43
2022-09-17T21:22:09.437Z,10.13
2022-09-17T21:24:44.451Z,10.90
2022-09-17T21:27:14.694Z,11.73
2022-09-17T21:29:43.838Z,10.10
2022-09-17T21:32:14.392Z,10.00
2022-09-17T21:34:44.075Z,9.20
2022-09-17T21:37:15.945Z,10.17
2022-09-17T21:39:45.531Z,9.17
2022-09-17T21:42:14.776Z,10.20
2022-09-17T21:44:43.995Z,9.50
2022-09-17T21:47:14.845Z,10.77
2022-09-17T21:49:48.592Z,12.93
2022-09-17T21:52:17.594Z,12.03
2022-09-17T21:54:46.859Z,10.20
2022-09-17T21:57:17.456Z,11.87
2022-09-17T21:59:47.583Z,11.17
2022-09-17T22:02:20.019Z,11.60
2022-09-17T22:04:53.780Z,9.23
2022-09-17T22:07:24.053Z,9.97
2022-09-17T22:09:57.037Z,12.10
2022-09-17T22:12:28.564Z,12.47
2022-09-17T22:14:57.890Z,13.13
2022-09-17T22:17:29.095Z,12.27
2022-09-17T22:20:02.454Z,12.47
2022-09-17T22:22:31.645Z,15.83
2022-09-17T22:25:00.742Z,12.13
2022-09-17T22:27:30.147Z,10.57
2022-09-17T22:29:59.315Z,10.73
2022-09-17T22:32:31.480Z,12.80
2022-09-17T22:35:00.573Z,12.77
2022-09-17T22:37:30.996Z,10.47
2022-09-17T22:40:00.376Z,12.77
2022-09-17T22:42:31.445Z,11.93
2022-09-17T22:45:00.636Z,11.67
2022-09-17T22:47:32.814Z,12.57
2022-09-17T22:50:03.270Z,12.43
2022-09-17T22:52:33.959Z,10.53
2022-09-17T22:55:06.429Z,11.93
2022-09-17T22:57:37.343Z,14.53
2022-09-17T23:00:07.686Z,11.83
2022-09-17T23:02:39.477Z,12.93
2022-09-17T23:05:09.022Z,12.57
2022-09-17T23:07:40.197Z,13.50
2022-09-17T23:10:10.248Z,11.20
2022-09-17T23:12:39.280Z,12.57
2022-09-17T23:15:10.155Z,10.23
2022-09-17T23:17:44.528Z,11.77
2022-09-17T23:20:13.678Z,11.83
2022-09-17T23:22:42.718Z,13.60
2022-09-17T23:25:11.944Z,15.13
2022-09-17T23:27:41.803Z,11.30
2022-09-17T23:30:12.463Z,12.70
2022-09-17T23:32:43.115Z,12.03
2022-09-17T23:35:12.224Z,14.50
2022-09-17T23:37:41.355Z,11.23
2022-09-17T23:40:11.075Z,11.03
2022-09-17T23:42:40.538Z,9.73
2022-09-17T23:45:11.497Z,12.97
2022-09-17T23:47:43.467Z,11.47
2022-09-17T23:50:12.862Z,16.60
2022-09-17T23:52:42.195Z,12.13
2022-09-17T23:55:11.936Z,13.23
2022-09-17T23:57:41.115Z,16.53
